createdAt,value
2018-06-18T00:00:58.386Z,58.69
2018-06-18T00:03:10.812Z,57.50
2018-06-18T00:05:23.217Z,58.33
2018-06-18T00:07:35.619Z,58.12
2018-06-18T00:09:47.983Z,58.41
2018-06-18T00:12:00.384Z,58.91
2018-06-18T00:14:13.514Z,58.51
2018-06-18T00:16:25.857Z,58.11
2018-06-18T00:18:38.310Z,58.68
2018-06-18T00:20:50.694Z,57.55
2018-06-18T00:23:03.102Z,57.87
2018-06-18T00:25:15.769Z,57.90
2018-06-18T00:27:28.179Z,58.06
2018-06-18T00:29:40.582Z,57.59
2018-06-18T00:31:52.918Z,57.72
2018-06-18T00:34:05.370Z,57.27
2018-06-18T00:36:17.975Z,57.92
2018-06-18T00:38:30.542Z,58.48
2018-06-18T00:40:42.912Z,58.31
2018-06-18T00:42:55.267Z,57.88
2018-06-18T00:45:07.737Z,57.77
2018-06-18T00:47:20.104Z,57.41
2018-06-18T00:49:32.486Z,58.43
2018-06-18T00:51:45.095Z,58.67
2018-06-18T00:53:57.575Z,58.50
2018-06-18T00:56:12.236Z,58.73
2018-06-18T00:58:24.606Z,57.99
2018-06-18T01:00:37.159Z,58.83
2018-06-18T01:02:49.733Z,58.66
2018-06-18T01:05:02.193Z,58.92
2018-06-18T01:07:14.594Z,59.23
2018-06-18T01:09:26.973Z,58.78
2018-06-18T01:11:39.346Z,58.85
2018-06-18T01:13:51.743Z,58.91
2018-06-18T01:16:04.259Z,59.18
2018-06-18T01:18:16.694Z,58.28
2018-06-18T01:20:29.026Z,58.69
2018-06-18T01:22:44.562Z,58.22
2018-06-18T01:25:01.423Z,58.17
2018-06-18T01:27:13.774Z,58.35
2018-06-18T01:29:26.158Z,58.87
2018-06-18T01:31:38.495Z,58.93
2018-06-18T01:33:52.648Z,58.13
2018-06-18T01:36:05.026Z,59.07
2018-06-18T01:38:17.387Z,58.52
2018-06-18T01:40:29.859Z,58.67
2018-06-18T01:42:42.218Z,59.19
2018-06-18T01:44:54.629Z,58.54
2018-06-18T01:47:07.239Z,59.02
2018-06-18T01:49:19.701Z,59.28
2018-06-18T01:51:32.262Z,59.45
2018-06-18T01:53:44.631Z,58.76
2018-06-18T01:55:57.118Z,59.51
2018-06-18T01:58:09.651Z,59.01
2018-06-18T02:00:22.164Z,58.31
2018-06-18T02:02:34.526Z,58.94
2018-06-18T02:04:46.911Z,59.01
2018-06-18T02:06:59.391Z,59.11
2018-06-18T02:09:12.635Z,58.42
2018-06-18T02:11:25.111Z,58.59
2018-06-18T02:13:37.484Z,59.05
2018-06-18T02:15:49.873Z,58.62
2018-06-18T02:18:02.311Z,59.48
2018-06-18T02:20:14.877Z,58.87
2018-06-18T02:22:27.253Z,58.96
2018-06-18T02:24:39.613Z,59.17
2018-06-18T02:26:57.738Z,59.65
2018-06-18T02:29:15.781Z,59.03
2018-06-18T02:31:33.875Z,58.80
2018-06-18T02:33:51.849Z,58.99
2018-06-18T02:36:09.887Z,58.66
2018-06-18T02:38:28.033Z,58.82
2018-06-18T02:40:44.398Z,59.55
2018-06-18T02:42:56.788Z,60.29
2018-06-18T02:45:09.266Z,59.42
2018-06-18T02:47:21.697Z,59.82
2018-06-18T02:49:34.269Z,60.27
2018-06-18T02:51:46.638Z,60.27
2018-06-18T02:53:59.135Z,60.04
2018-06-18T02:56:11.527Z,59.26
2018-06-18T02:58:23.943Z,59.24
2018-06-18T03:00:36.332Z,59.65
2018-06-18T03:02:48.763Z,60.45
2018-06-18T03:05:01.209Z,60.16
2018-06-18T03:07:13.646Z,60.58
2018-06-18T03:09:26.147Z,60.09
2018-06-18T03:11:39.090Z,60.33
2018-06-18T03:13:51.706Z,61.24
2018-06-18T03:16:04.184Z,60.64
2018-06-18T03:18:22.299Z,60.60
2018-06-18T03:20:40.232Z,59.64
2018-06-18T03:22:58.307Z,60.65
2018-06-18T03:25:16.490Z,60.38
2018-06-18T03:27:34.502Z,60.68
2018-06-18T03:29:46.950Z,60.52
2018-06-18T03:32:01.106Z,60.43
2018-06-18T03:34:13.678Z,60.49
2018-06-18T03:36:26.100Z,61.22
2018-06-18T03:38:38.493Z,61.18
2018-06-18T03:40:51.001Z,61.35
2018-06-18T03:43:03.420Z,61.24
2018-06-18T03:45:18.808Z,60.84
2018-06-18T03:47:31.246Z,60.76
2018-06-18T03:49:43.770Z,60.96
2018-06-18T03:51:56.142Z,62.14
2018-06-18T03:54:08.545Z,61.08
2018-06-18T03:56:21.051Z,60.83
2018-06-18T03:58:33.447Z,61.72
2018-06-18T04:01:02.317Z,60.77
2018-06-18T04:03:20.366Z,60.47
2018-06-18T04:05:38.453Z,61.19
2018-06-18T04:07:56.454Z,60.83
2018-06-18T04:10:14.606Z,60.67
2018-06-18T04:12:26.991Z,60.59
2018-06-18T04:14:39.354Z,60.97
2018-06-18T04:16:51.922Z,61.94
2018-06-18T04:19:04.410Z,62.26
2018-06-18T04:21:16.797Z,61.40
2018-06-18T04:23:29.191Z,60.57
2018-06-18T04:25:41.714Z,60.64
2018-06-18T04:27:54.074Z,61.33
2018-06-18T04:30:06.575Z,62.17
2018-06-18T04:32:19.031Z,61.89
2018-06-18T04:34:47.614Z,61.77
2018-06-18T04:37:00.071Z,61.77
2018-06-18T04:39:12.622Z,61.89
2018-06-18T04:41:25.058Z,62.01
2018-06-18T04:43:43.079Z,62.27
2018-06-18T04:46:00.966Z,61.57
2018-06-18T04:48:19.163Z,61.43
2018-06-18T04:50:37.486Z,61.64
2018-06-18T04:52:49.961Z,60.38
2018-06-18T04:55:02.642Z,60.03
2018-06-18T04:57:15.118Z,59.89
2018-06-18T04:59:27.516Z,60.15
2018-06-18T05:01:39.910Z,59.82
2018-06-18T05:03:52.595Z,60.18
2018-06-18T05:06:04.981Z,59.42
2018-06-18T05:08:54.743Z,59.49
2018-06-18T05:11:07.121Z,58.96
2018-06-18T05:13:19.467Z,60.24
2018-06-18T05:15:36.468Z,59.55
2018-06-18T05:17:48.854Z,58.70
2018-06-18T05:20:01.263Z,57.69
2018-06-18T05:22:13.790Z,58.05
2018-06-18T05:24:26.337Z,58.04
2018-06-18T05:26:42.121Z,57.23
2018-06-18T05:28:54.505Z,57.08
2018-06-18T05:31:06.901Z,55.88
2018-06-18T05:33:19.343Z,56.18
2018-06-18T05:35:31.717Z,56.43
2018-06-18T05:38:07.080Z,55.37
2018-06-18T05:40:19.438Z,56.49
2018-06-18T05:42:31.822Z,55.41
2018-06-18T05:44:44.155Z,55.33
2018-06-18T05:46:56.529Z,53.85
2018-06-18T05:49:08.944Z,54.70
2018-06-18T05:51:21.326Z,54.58
2018-06-18T05:53:33.684Z,54.33
2018-06-18T05:55:46.258Z,53.18
2018-06-18T05:57:58.900Z,54.06
2018-06-18T06:00:11.399Z,54.07
2018-06-18T06:02:23.784Z,53.24
2018-06-18T06:04:36.171Z,54.36
2018-06-18T06:06:48.506Z,53.58
2018-06-18T06:09:01.079Z,52.13
2018-06-18T06:11:13.410Z,52.02
2018-06-18T06:13:25.807Z,52.32
2018-06-18T06:15:38.336Z,53.01
2018-06-18T06:17:50.769Z,52.57
2018-06-18T06:20:03.244Z,51.49
2018-06-18T06:22:15.752Z,52.19
2018-06-18T06:24:28.258Z,52.06
2018-06-18T06:26:40.752Z,51.23
2018-06-18T06:28:53.201Z,51.66
2018-06-18T06:31:05.917Z,51.94
2018-06-18T06:33:18.310Z,50.76
2018-06-18T06:35:34.175Z,51.30
2018-06-18T06:37:46.759Z,51.60
2018-06-18T06:39:59.127Z,51.67
2018-06-18T06:42:15.271Z,52.35
2018-06-18T06:44:27.626Z,51.14
2018-06-18T06:46:40.222Z,50.82
2018-06-18T06:48:52.679Z,52.23
2018-06-18T06:51:05.158Z,51.85
2018-06-18T06:53:17.532Z,51.07
2018-06-18T06:55:29.952Z,51.84
2018-06-18T06:57:42.358Z,51.40
2018-06-18T06:59:54.790Z,51.68
2018-06-18T07:02:07.204Z,50.24
2018-06-18T07:04:19.667Z,50.99
2018-06-18T07:06:32.034Z,50.26
2018-06-18T07:08:44.535Z,50.64
2018-06-18T07:10:56.950Z,51.15
2018-06-18T07:13:11.514Z,50.32
2018-06-18T07:15:25.548Z,51.11
2018-06-18T07:17:39.071Z,51.66
2018-06-18T07:19:51.634Z,50.27
2018-06-18T07:22:04.050Z,50.01
2018-06-18T07:24:16.738Z,49.84
2018-06-18T07:26:29.098Z,49.51
2018-06-18T07:28:41.510Z,48.93
2018-06-18T07:30:53.999Z,47.18
2018-06-18T07:33:06.416Z,48.12
2018-06-18T07:35:18.968Z,46.49
2018-06-18T07:37:31.377Z,47.28
2018-06-18T07:39:44.750Z,46.60
2018-06-18T07:41:57.126Z,46.87
2018-06-18T07:44:09.534Z,48.17
2018-06-18T07:46:22.000Z,46.26
2018-06-18T07:48:34.404Z,47.29
2018-06-18T07:50:46.794Z,45.67
2018-06-18T07:52:59.163Z,46.20
2018-06-18T07:55:12.442Z,45.00
2018-06-18T07:57:24.847Z,44.01
2018-06-18T07:59:37.255Z,46.33
2018-06-18T08:01:49.934Z,44.45
2018-06-18T08:04:02.463Z,45.31
2018-06-18T08:06:14.934Z,44.50
2018-06-18T08:08:27.377Z,44.81
2018-06-18T08:10:39.842Z,45.32
2018-06-18T08:12:52.293Z,45.45
2018-06-18T08:15:04.938Z,44.29
2018-06-18T08:17:17.294Z,45.80
2018-06-18T08:19:29.647Z,46.97
2018-06-18T08:21:42.050Z,44.46
2018-06-18T08:23:54.437Z,44.41
2018-06-18T08:26:06.978Z,43.30
2018-06-18T08:28:19.386Z,42.91
2018-06-18T08:30:31.798Z,41.50
2018-06-18T08:32:44.207Z,41.57
2018-06-18T08:34:56.701Z,41.86
2018-06-18T08:37:09.171Z,42.44
2018-06-18T08:39:22.494Z,43.20
2018-06-18T08:41:35.217Z,42.66
2018-06-18T08:43:47.610Z,43.40
2018-06-18T08:46:00.037Z,42.20
2018-06-18T08:48:17.023Z,43.23
2018-06-18T08:50:35.040Z,42.10
2018-06-18T08:52:53.042Z,41.61
2018-06-18T08:55:11.069Z,40.45
2018-06-18T08:57:29.022Z,41.65
2018-06-18T08:59:47.095Z,40.62
2018-06-18T09:01:59.513Z,39.40
2018-06-18T09:04:16.054Z,42.07
2018-06-18T09:06:28.511Z,39.81
2018-06-18T09:08:46.550Z,40.61
2018-06-18T09:10:59.639Z,39.07
2018-06-18T09:13:12.118Z,39.83
2018-06-18T09:15:24.522Z,39.65
2018-06-18T09:17:37.125Z,39.76
2018-06-18T09:19:49.556Z,41.97
2018-06-18T09:22:02.034Z,42.23
2018-06-18T09:24:14.500Z,43.49
2018-06-18T09:26:26.950Z,44.18
2018-06-18T09:28:39.346Z,42.55
2018-06-18T09:30:51.908Z,41.20
2018-06-18T09:33:04.467Z,41.00
2018-06-18T09:35:16.946Z,40.51
2018-06-18T09:37:29.338Z,40.60
2018-06-18T09:39:41.815Z,42.25
2018-06-18T09:41:54.336Z,41.25
2018-06-18T09:44:06.699Z,42.19
2018-06-18T09:46:19.137Z,42.01
2018-06-18T09:48:37.015Z,41.47
2018-06-18T09:50:54.915Z,39.11
2018-06-18T09:53:13.878Z,40.18
2018-06-18T09:55:31.742Z,41.71
2018-06-18T09:57:49.701Z,40.21
2018-06-18T10:00:08.245Z,39.59
2018-06-18T10:02:20.777Z,41.24
2018-06-18T10:04:33.157Z,41.67
2018-06-18T10:06:46.139Z,39.80
2018-06-18T10:09:03.803Z,40.41
2018-06-18T10:11:16.157Z,39.57
2018-06-18T10:13:28.832Z,37.82
2018-06-18T10:15:41.167Z,37.13
2018-06-18T10:17:53.920Z,37.78
2018-06-18T10:20:06.506Z,38.77
2018-06-18T10:22:19.091Z,38.24
2018-06-18T10:24:31.739Z,37.73
2018-06-18T10:26:44.005Z,37.88
2018-06-18T10:28:57.210Z,38.03
2018-06-18T10:31:09.624Z,39.58
2018-06-18T10:33:27.572Z,38.89
2018-06-18T10:35:45.590Z,38.65
2018-06-18T10:38:04.243Z,39.14
2018-06-18T10:40:22.193Z,39.71
2018-06-18T10:42:40.076Z,39.95
2018-06-18T10:44:52.474Z,39.57
2018-06-18T10:47:04.897Z,39.68
2018-06-18T10:49:17.375Z,39.40
2018-06-18T10:51:29.750Z,38.91
2018-06-18T10:53:42.151Z,38.08
2018-06-18T10:55:54.677Z,38.13
2018-06-18T10:58:07.003Z,36.55
2018-06-18T11:00:23.392Z,37.79
2018-06-18T11:02:35.811Z,39.43
2018-06-18T11:04:53.767Z,39.38
2018-06-18T11:07:06.189Z,38.23
2018-06-18T11:09:19.663Z,37.84
2018-06-18T11:11:32.134Z,39.40
2018-06-18T11:13:44.591Z,40.96
2018-06-18T11:15:57.170Z,39.07
2018-06-18T11:18:15.106Z,38.66
2018-06-18T11:20:33.109Z,39.47
2018-06-18T11:22:51.138Z,38.48
2018-06-18T11:25:09.132Z,36.56
2018-06-18T11:27:21.514Z,36.77
2018-06-18T11:29:33.930Z,36.33
2018-06-18T11:31:46.368Z,37.91
2018-06-18T11:33:58.740Z,37.12
2018-06-18T11:36:11.251Z,37.20
2018-06-18T11:38:23.649Z,37.60
2018-06-18T11:40:36.078Z,39.49
2018-06-18T11:42:48.393Z,38.81
2018-06-18T11:45:00.786Z,37.37
2018-06-18T11:47:13.228Z,34.90
2018-06-18T11:49:25.743Z,37.75
2018-06-18T11:51:38.195Z,37.82
2018-06-18T11:53:50.595Z,35.87
2018-06-18T11:56:03.270Z,36.76
2018-06-18T11:58:21.364Z,38.11
2018-06-18T12:00:39.674Z,36.71
2018-06-18T12:02:59.792Z,37.90
2018-06-18T12:05:17.849Z,37.77
2018-06-18T12:07:36.036Z,37.47
2018-06-18T12:09:49.625Z,38.95
2018-06-18T12:12:01.942Z,38.25
2018-06-18T12:14:15.099Z,37.68
2018-06-18T12:16:27.539Z,38.00
2018-06-18T12:18:40.150Z,39.57
2018-06-18T12:20:52.594Z,38.84
2018-06-18T12:23:05.162Z,38.04
2018-06-18T12:25:17.550Z,38.05
2018-06-18T12:27:31.863Z,37.37
2018-06-18T12:29:44.330Z,38.08
2018-06-18T12:31:56.696Z,37.20
2018-06-18T12:34:09.238Z,37.88
2018-06-18T12:36:21.677Z,38.42
2018-06-18T12:38:34.275Z,38.01
2018-06-18T12:40:46.830Z,39.69
2018-06-18T12:42:59.251Z,37.94
2018-06-18T12:45:18.787Z,36.96
2018-06-18T12:47:36.991Z,38.60
2018-06-18T12:49:54.938Z,38.73
2018-06-18T12:52:13.203Z,38.31
2018-06-18T12:54:31.139Z,38.33
2018-06-18T12:57:05.806Z,39.91
2018-06-18T12:59:18.294Z,38.88
2018-06-18T13:01:33.119Z,38.91
2018-06-18T13:03:45.640Z,37.60
2018-06-18T13:05:58.130Z,38.36
2018-06-18T13:08:10.632Z,37.07
2018-06-18T13:10:22.962Z,36.80
2018-06-18T13:12:35.401Z,38.80
2018-06-18T13:14:47.805Z,38.08
2018-06-18T13:17:00.266Z,37.00
2018-06-18T13:19:12.761Z,38.33
2018-06-18T13:21:25.483Z,38.13
2018-06-18T13:23:38.018Z,38.46
2018-06-18T13:25:50.387Z,40.00
2018-06-18T13:28:08.387Z,40.05
2018-06-18T13:30:20.874Z,39.99
2018-06-18T13:32:33.373Z,39.78
2018-06-18T13:34:45.838Z,38.98
2018-06-18T13:37:03.891Z,38.65
2018-06-18T13:39:21.765Z,37.85
2018-06-18T13:41:39.765Z,37.35
2018-06-18T13:43:57.879Z,39.40
2018-06-18T13:46:15.991Z,38.27
2018-06-18T13:48:33.987Z,37.77
2018-06-18T13:50:46.430Z,38.10
2018-06-18T13:52:58.789Z,38.42
2018-06-18T13:55:11.207Z,37.98
2018-06-18T13:57:24.086Z,38.96
2018-06-18T13:59:36.587Z,38.25
2018-06-18T14:01:49.032Z,39.12
2018-06-18T14:04:01.433Z,38.45
2018-06-18T14:06:13.903Z,39.05
2018-06-18T14:08:26.294Z,38.64
2018-06-18T14:10:38.738Z,39.00
2018-06-18T14:12:51.115Z,39.12
2018-06-18T14:15:03.559Z,40.14
2018-06-18T14:17:16.131Z,39.45
2018-06-18T14:19:34.110Z,38.94
2018-06-18T14:21:46.694Z,38.26
2018-06-18T14:23:59.046Z,39.15
2018-06-18T14:26:11.489Z,39.07
2018-06-18T14:28:23.934Z,38.64
2018-06-18T14:30:42.027Z,37.83
2018-06-18T14:32:59.956Z,38.65
2018-06-18T14:35:18.127Z,37.91
2018-06-18T14:37:36.119Z,39.66
2018-06-18T14:39:52.667Z,39.11
2018-06-18T14:42:06.444Z,38.85
2018-06-18T14:44:18.771Z,38.27
2018-06-18T14:46:31.231Z,37.84
2018-06-18T14:48:43.631Z,37.15
2018-06-18T14:50:56.018Z,37.12
2018-06-18T14:53:08.523Z,37.78
2018-06-18T14:55:20.986Z,38.26
2018-06-18T14:57:33.417Z,38.95
2018-06-18T14:59:52.850Z,37.19
2018-06-18T15:02:05.335Z,38.35
2018-06-18T15:04:17.724Z,37.18
2018-06-18T15:06:30.107Z,37.85
2018-06-18T15:08:42.495Z,38.13
2018-06-18T15:10:54.918Z,38.00
2018-06-18T15:13:09.354Z,38.83
2018-06-18T15:15:27.297Z,38.38
2018-06-18T15:17:39.714Z,38.44
2018-06-18T15:19:52.098Z,38.79
2018-06-18T15:22:04.483Z,39.10
2018-06-18T15:24:28.605Z,38.42
2018-06-18T15:26:41.070Z,37.77
2018-06-18T15:28:53.434Z,37.92
2018-06-18T15:31:05.900Z,38.14
2018-06-18T15:33:18.326Z,38.02
2018-06-18T15:35:30.899Z,38.79
2018-06-18T15:37:43.316Z,39.97
2018-06-18T15:39:55.650Z,39.01
2018-06-18T15:42:08.095Z,38.90
2018-06-18T15:44:20.549Z,39.23
2018-06-18T15:46:33.029Z,38.67
2018-06-18T15:48:45.409Z,40.35
2018-06-18T15:50:57.806Z,39.81
2018-06-18T15:53:10.121Z,41.35
2018-06-18T15:55:22.564Z,39.26
2018-06-18T15:57:35.000Z,40.09
2018-06-18T15:59:47.402Z,39.43
2018-06-18T16:01:59.798Z,40.51
2018-06-18T16:04:12.219Z,40.21
2018-06-18T16:06:24.670Z,40.28
2018-06-18T16:08:37.147Z,40.93
2018-06-18T16:10:49.627Z,41.16
2018-06-18T16:13:02.064Z,40.91
2018-06-18T16:15:14.536Z,40.94
2018-06-18T16:17:26.889Z,40.85
2018-06-18T16:19:39.331Z,40.86
2018-06-18T16:21:51.693Z,40.72
2018-06-18T16:24:04.134Z,42.47
2018-06-18T16:26:16.748Z,40.96
2018-06-18T16:28:29.129Z,41.67
2018-06-18T16:30:41.533Z,41.47
2018-06-18T16:32:53.921Z,40.29
2018-06-18T16:35:06.356Z,40.67
2018-06-18T16:37:18.802Z,41.17
2018-06-18T16:39:32.190Z,41.49
2018-06-18T16:41:44.623Z,40.57
2018-06-18T16:43:56.991Z,40.93
2018-06-18T16:46:09.381Z,41.28
2018-06-18T16:48:21.814Z,41.35
2018-06-18T16:50:34.146Z,41.62
2018-06-18T16:52:46.518Z,42.13
2018-06-18T16:54:58.891Z,42.17
2018-06-18T16:57:11.334Z,40.92
2018-06-18T16:59:23.710Z,42.44
2018-06-18T17:01:36.090Z,43.04
2018-06-18T17:03:49.344Z,41.19
2018-06-18T17:06:01.794Z,42.00
2018-06-18T17:08:14.135Z,43.13
2018-06-18T17:10:26.598Z,42.15
2018-06-18T17:12:39.114Z,42.35
2018-06-18T17:14:51.921Z,41.53
2018-06-18T17:17:04.415Z,42.98
2018-06-18T17:19:16.822Z,43.61
2018-06-18T17:21:29.311Z,44.00
2018-06-18T17:23:41.734Z,43.65
2018-06-18T17:25:54.103Z,43.05
2018-06-18T17:28:06.748Z,43.36
2018-06-18T17:30:19.943Z,43.26
2018-06-18T17:32:32.430Z,43.88
2018-06-18T17:34:44.922Z,44.96
2018-06-18T17:36:57.471Z,44.25
2018-06-18T17:39:11.507Z,43.94
2018-06-18T17:41:23.903Z,44.08
2018-06-18T17:43:36.361Z,43.53
2018-06-18T17:45:48.822Z,45.27
2018-06-18T17:48:01.366Z,45.06
2018-06-18T17:50:13.675Z,45.50
2018-06-18T17:52:26.058Z,45.07
2018-06-18T17:54:38.474Z,46.71
2018-06-18T17:56:51.010Z,46.05
2018-06-18T17:59:03.517Z,45.83
2018-06-18T18:01:15.987Z,46.62
2018-06-18T18:03:28.664Z,45.96
2018-06-18T18:05:41.168Z,46.02
2018-06-18T18:07:53.602Z,47.12
2018-06-18T18:10:06.125Z,48.00
2018-06-18T18:12:18.541Z,47.58
2018-06-18T18:14:31.158Z,47.75
2018-06-18T18:16:43.549Z,46.66
2018-06-18T18:18:56.012Z,46.02
2018-06-18T18:21:08.364Z,46.50
2018-06-18T18:23:20.810Z,46.60
2018-06-18T18:25:33.159Z,47.10
2018-06-18T18:27:45.680Z,47.03
2018-06-18T18:29:58.079Z,47.44
2018-06-18T18:32:10.474Z,48.20
2018-06-18T18:34:23.029Z,47.65
2018-06-18T18:36:35.456Z,48.18
2018-06-18T18:38:47.878Z,48.78
2018-06-18T18:41:00.495Z,49.06
2018-06-18T18:43:12.886Z,48.65
2018-06-18T18:45:25.249Z,48.81
2018-06-18T18:47:37.565Z,48.79
2018-06-18T18:49:49.945Z,49.51
2018-06-18T18:52:02.307Z,48.83
2018-06-18T18:55:27.594Z,49.65
2018-06-18T18:57:51.346Z,48.86
2018-06-18T19:00:03.866Z,50.29
2018-06-18T19:02:16.233Z,50.28
2018-06-18T19:04:33.114Z,49.98
2018-06-18T19:06:45.655Z,50.09
2018-06-18T19:08:58.090Z,50.69
2018-06-18T19:11:10.533Z,51.50
2018-06-18T19:13:25.518Z,50.72
2018-06-18T19:15:38.228Z,50.65
2018-06-18T19:17:50.873Z,51.67
2018-06-18T19:20:07.427Z,51.75
2018-06-18T19:22:19.852Z,51.51
2018-06-18T19:24:32.286Z,51.21
2018-06-18T19:26:44.755Z,52.05
2018-06-18T19:28:57.259Z,51.66
2018-06-18T19:31:13.134Z,51.92
2018-06-18T19:33:31.814Z,51.14
2018-06-18T19:35:44.304Z,51.26
2018-06-18T19:37:56.795Z,51.31
2018-06-18T19:40:09.178Z,51.08
2018-06-18T19:42:21.618Z,52.12
2018-06-18T19:44:34.114Z,51.92
2018-06-18T19:47:24.782Z,52.87
2018-06-18T19:49:37.126Z,52.37
2018-06-18T19:51:49.451Z,52.39
2018-06-18T19:54:01.881Z,53.09
2018-06-18T19:56:14.299Z,52.79
2018-06-18T19:58:26.647Z,53.63
2018-06-18T20:00:42.653Z,53.92
2018-06-18T20:02:55.404Z,55.28
2018-06-18T20:05:12.965Z,56.08
2018-06-18T20:07:26.070Z,56.71
2018-06-18T20:09:38.575Z,56.26
2018-06-18T20:11:50.991Z,57.43
2018-06-18T20:14:03.531Z,56.71
2018-06-18T20:16:15.997Z,58.15
2018-06-18T20:18:28.435Z,58.01
2018-06-18T20:20:40.822Z,59.10
2018-06-18T20:22:53.275Z,58.97
2018-06-18T20:25:06.303Z,59.52
2018-06-18T20:27:18.693Z,58.78
2018-06-18T20:29:31.215Z,59.41
2018-06-18T20:31:45.380Z,59.08
2018-06-18T20:33:58.065Z,59.14
2018-06-18T20:36:12.248Z,59.05
2018-06-18T20:38:24.647Z,59.50
2018-06-18T20:40:37.050Z,59.86
2018-06-18T20:42:49.713Z,59.74
2018-06-18T20:45:02.127Z,59.61
2018-06-18T20:47:14.548Z,60.38
2018-06-18T20:49:27.034Z,60.90
2018-06-18T20:51:39.754Z,60.15
2018-06-18T20:53:52.180Z,60.38
2018-06-18T20:56:04.777Z,60.36
2018-06-18T20:58:17.186Z,60.97
2018-06-18T21:00:29.606Z,60.38
2018-06-18T21:02:42.108Z,60.28
2018-06-18T21:04:54.584Z,61.23
2018-06-18T21:07:07.013Z,60.51
2018-06-18T21:09:19.414Z,61.40
2018-06-18T21:11:31.835Z,60.96
2018-06-18T21:13:44.214Z,61.10
2018-06-18T21:15:56.616Z,61.15
2018-06-18T21:18:09.067Z,62.01
2018-06-18T21:20:21.644Z,62.15
2018-06-18T21:22:34.204Z,62.28
2018-06-18T21:24:46.610Z,62.07
2018-06-18T21:26:59.037Z,62.15
2018-06-18T21:29:11.438Z,62.25
2018-06-18T21:31:23.850Z,62.55
2018-06-18T21:33:36.708Z,62.29
2018-06-18T21:35:49.191Z,62.50
2018-06-18T21:38:01.665Z,61.81
2018-06-18T21:40:14.075Z,63.02
2018-06-18T21:42:26.495Z,63.01
2018-06-18T21:45:13.731Z,62.68
2018-06-18T21:47:26.154Z,62.79
2018-06-18T21:49:38.511Z,63.35
2018-06-18T21:51:51.622Z,62.99
2018-06-18T21:54:04.067Z,63.42
2018-06-18T21:56:16.482Z,63.46
2018-06-18T21:58:28.974Z,62.76
2018-06-18T22:00:46.838Z,63.61
2018-06-18T22:02:59.281Z,63.26
2018-06-18T22:05:11.668Z,63.43
2018-06-18T22:07:24.039Z,62.83
2018-06-18T22:09:36.450Z,63.15
2018-06-18T22:11:52.052Z,63.56
2018-06-18T22:14:04.558Z,63.05
2018-06-18T22:16:16.963Z,63.08
2018-06-18T22:18:29.322Z,63.48
2018-06-18T22:20:42.022Z,62.91
2018-06-18T22:22:54.425Z,63.03
2018-06-18T22:25:06.836Z,62.93
2018-06-18T22:27:19.211Z,63.01
2018-06-18T22:29:31.770Z,64.07
2018-06-18T22:31:44.242Z,63.90
2018-06-18T22:33:56.731Z,63.23
2018-06-18T22:36:09.198Z,63.70
2018-06-18T22:38:21.648Z,63.68
2018-06-18T22:40:33.993Z,63.88
2018-06-18T22:42:46.414Z,62.95
2018-06-18T22:44:58.838Z,63.06
2018-06-18T22:47:11.334Z,63.05
2018-06-18T22:49:23.819Z,64.07
2018-06-18T22:51:36.262Z,64.13
2018-06-18T22:53:48.698Z,63.57
2018-06-18T22:56:01.184Z,63.42
2018-06-18T22:58:13.710Z,63.65
2018-06-18T23:00:26.107Z,64.58
2018-06-18T23:02:38.490Z,64.62
2018-06-18T23:04:51.015Z,64.27
2018-06-18T23:07:04.276Z,63.97
2018-06-18T23:09:16.687Z,64.43
2018-06-18T23:11:29.105Z,64.61
2018-06-18T23:13:41.533Z,65.48
2018-06-18T23:15:53.978Z,64.85
2018-06-18T23:18:06.413Z,64.87
2018-06-18T23:20:18.774Z,64.85
2018-06-18T23:22:31.167Z,65.46
2018-06-18T23:24:43.598Z,64.92
2018-06-18T23:26:56.070Z,65.43
2018-06-18T23:29:10.679Z,65.65
2018-06-18T23:31:23.152Z,66.18
2018-06-18T23:33:35.601Z,66.37
2018-06-18T23:35:48.105Z,65.43
2018-06-18T23:38:00.613Z,65.74
2018-06-18T23:40:13.074Z,64.98
2018-06-18T23:42:25.454Z,65.18
2018-06-18T23:44:37.943Z,64.91
2018-06-18T23:46:50.363Z,65.54
2018-06-18T23:49:02.810Z,65.81
2018-06-18T23:51:15.318Z,65.81
2018-06-18T23:53:27.889Z,66.22
2018-06-18T23:55:40.315Z,65.83
2018-06-18T23:57:52.724Z,66.49
